Time;durP1;ratioP1;P1;durP2;ratioP2;P2;SDS_P1;SDS_P2;PMS_P1;PMS_P2;Temp;Humidity;BMP_temperature;BMP_pressure;BME280_temperature;BME280_humidity;BME280_pressure;Samples;Min_cycle;Max_cycle;Signal;HPM_P1;HPM_P2
2022/01/01 00:00:49;;;;;;;118.97;59.30;;;9.40;90.70;;;;;;5057164;28;20547;-77
2022/01/01 00:03:19;;;;;;;99.53;51.03;;;9.50;90.80;;;;;;5059700;28;20698;-78
2022/01/01 00:05:48;;;;;;;95.23;48.57;;;9.50;90.80;;;;;;5051182;28;20261;-78
2022/01/01 00:08:16;;;;;;;88.60;45.63;;;9.50;90.80;;;;;;5058647;28;20218;-78
2022/01/01 00:10:45;;;;;;;84.77;45.87;;;9.40;90.70;;;;;;5056023;28;20190;-78
2022/01/01 00:13:16;;;;;;;126.40;69.70;;;9.40;90.70;;;;;;5062191;28;20227;-78
2022/01/01 00:15:44;;;;;;;77.60;43.07;;;9.40;90.70;;;;;;5061138;28;20186;-78
2022/01/01 00:18:13;;;;;;;113.87;59.07;;;9.40;90.70;;;;;;5063576;28;20197;-78
2022/01/01 00:20:42;;;;;;;73.90;41.23;;;9.40;90.80;;;;;;5060004;28;22076;-78
2022/01/01 00:23:11;;;;;;;62.53;35.67;;;9.40;90.80;;;;;;5059571;28;20202;-78
2022/01/01 00:25:39;;;;;;;77.00;39.57;;;9.40;90.80;;;;;;5059271;28;20190;-78
2022/01/01 00:28:12;;;;;;;67.07;35.00;;;9.40;90.80;;;;;;5056033;28;20213;-78
2022/01/01 00:30:40;;;;;;;69.53;33.23;;;9.30;90.70;;;;;;5049213;28;20195;-78
2022/01/01 00:33:09;;;;;;;58.47;29.27;;;9.30;90.80;;;;;;5053081;28;20902;-78
2022/01/01 00:35:38;;;;;;;52.20;26.53;;;9.30;90.90;;;;;;5062467;28;20186;-77
2022/01/01 00:38:07;;;;;;;48.10;24.53;;;9.30;91.00;;;;;;5055548;28;20198;-78
2022/01/01 00:40:36;;;;;;;39.70;22.07;;;9.20;91.00;;;;;;5053639;28;20194;-78
2022/01/01 00:43:04;;;;;;;40.70;23.67;;;9.20;91.20;;;;;;5064804;28;20656;-78
2022/01/01 00:45:32;;;;;;;44.90;23.07;;;9.20;91.30;;;;;;5063883;28;20604;-78
2022/01/01 00:48:01;;;;;;;38.63;20.13;;;9.10;91.20;;;;;;5052052;28;20309;-78
2022/01/01 00:50:29;;;;;;;54.10;27.67;;;9.10;91.30;;;;;;5054898;28;20191;-78
2022/01/01 00:53:02;;;;;;;36.93;20.83;;;9.10;91.40;;;;;;5053545;28;20278;-78
2022/01/01 00:55:32;;;;;;;40.03;20.67;;;9.10;91.40;;;;;;5065517;28;20202;-78
2022/01/01 00:58:00;;;;;;;39.83;20.00;;;9.10;91.50;;;;;;5061522;28;20198;-78
2022/01/01 01:00:28;;;;;;;62.73;33.70;;;9.10;91.50;;;;;;5062377;28;20190;-78
2022/01/01 01:02:57;;;;;;;49.83;23.47;;;9.00;91.50;;;;;;5062614;28;20191;-78
2022/01/01 01:05:26;;;;;;;40.33;21.97;;;9.00;91.50;;;;;;5063054;28;20182;-78
2022/01/01 01:07:54;;;;;;;36.27;19.67;;;9.00;91.60;;;;;;5060720;28;20239;-76
2022/01/01 01:10:23;;;;;;;40.77;21.23;;;9.00;91.60;;;;;;5063710;28;20191;-78
2022/01/01 01:12:53;;;;;;;254.07;116.90;;;9.00;91.60;;;;;;5065540;28;20836;-78
2022/01/01 01:15:21;;;;;;;48.63;25.80;;;9.00;91.50;;;;;;5055240;28;20186;-76
2022/01/01 01:17:52;;;;;;;43.13;23.00;;;9.00;91.50;;;;;;5064364;28;20194;-75
2022/01/01 01:20:21;;;;;;;46.40;25.30;;;9.00;91.50;;;;;;5060880;28;20201;-79
2022/01/01 01:22:50;;;;;;;43.77;22.27;;;9.00;91.50;;;;;;5061317;28;20218;-76
2022/01/01 01:25:20;;;;;;;43.60;23.23;;;9.00;91.50;;;;;;5057627;28;20832;-76
2022/01/01 01:27:49;;;;;;;41.03;20.63;;;9.00;91.50;;;;;;5053239;28;20202;-78
2022/01/01 01:30:20;;;;;;;39.63;20.40;;;9.00;91.50;;;;;;5060346;28;20221;-78
2022/01/01 01:32:48;;;;;;;38.37;20.93;;;9.00;91.50;;;;;;5063258;28;20942;-78
2022/01/01 01:35:17;;;;;;;39.27;21.20;;;9.00;91.40;;;;;;5059701;28;20675;-78
2022/01/01 01:37:45;;;;;;;40.53;20.73;;;9.00;91.40;;;;;;5065042;28;20592;-79
2022/01/01 01:40:13;;;;;;;38.57;19.70;;;9.00;91.40;;;;;;5065953;28;20667;-78
2022/01/01 01:42:43;;;;;;;35.70;19.17;;;9.00;91.30;;;;;;5061867;28;20252;-77
2022/01/01 01:45:17;;;;;;;34.00;19.67;;;9.00;91.30;;;;;;5065334;28;20740;-78
2022/01/01 01:47:49;;;;;;;41.20;21.60;;;9.10;91.30;;;;;;5050391;28;20791;-78
2022/01/01 01:50:19;;;;;;;43.87;22.70;;;9.00;91.10;;;;;;5060895;28;20218;-78
2022/01/01 01:52:51;;;;;;;36.43;20.40;;;9.00;91.00;;;;;;5058517;28;20191;-77
2022/01/01 01:55:19;;;;;;;37.57;19.57;;;9.00;91.00;;;;;;5063190;28;20197;-78
2022/01/01 01:57:49;;;;;;;31.80;19.17;;;9.00;91.10;;;;;;5063983;28;20205;-78
2022/01/01 02:00:53;;;;;;;37.20;19.00;;;9.10;91.10;;;;;;5056604;28;20191;-78
2022/01/01 02:03:11;;;;;;;41.00;20.00;;;9.10;91.10;;;;;;5052587;28;20290;-78
2022/01/01 02:05:40;;;;;;;38.23;19.23;;;9.10;91.00;;;;;;5053221;28;20210;-78
2022/01/01 02:08:10;;;;;;;36.60;18.47;;;9.10;91.00;;;;;;5057801;28;20607;-78
2022/01/01 02:10:40;;;;;;;33.37;18.67;;;9.10;91.00;;;;;;5061701;28;20217;-78
2022/01/01 02:13:13;;;;;;;35.50;19.00;;;9.10;91.00;;;;;;5060149;28;20195;-78
2022/01/01 02:15:48;;;;;;;34.10;18.93;;;9.10;91.00;;;;;;5061504;28;20190;-78
2022/01/01 02:18:18;;;;;;;34.57;18.20;;;9.10;91.00;;;;;;5059334;28;20182;-78
2022/01/01 02:20:50;;;;;;;41.33;22.20;;;9.10;91.00;;;;;;5062742;28;20199;-77
2022/01/01 02:23:21;;;;;;;46.63;23.70;;;9.10;91.00;;;;;;5062122;28;20182;-77
2022/01/01 02:25:50;;;;;;;39.43;20.57;;;9.10;90.90;;;;;;5054984;28;20190;-77
2022/01/01 02:28:18;;;;;;;36.67;18.97;;;9.10;90.90;;;;;;5057788;28;20644;-77
2022/01/01 02:30:47;;;;;;;38.53;18.33;;;9.10;90.80;;;;;;5061513;28;20623;-77
2022/01/01 02:33:16;;;;;;;39.23;20.27;;;9.10;90.80;;;;;;5058290;28;20241;-77
2022/01/01 02:35:44;;;;;;;36.17;18.40;;;9.10;90.70;;;;;;5059350;28;20198;-77
2022/01/01 02:38:15;;;;;;;31.80;17.80;;;9.10;90.70;;;;;;5054194;28;20199;-77
2022/01/01 02:40:44;;;;;;;37.20;18.97;;;9.10;90.80;;;;;;5060984;28;20194;-78
2022/01/01 02:43:12;;;;;;;37.60;19.80;;;9.10;90.80;;;;;;5063129;28;20202;-78
2022/01/01 02:45:41;;;;;;;38.27;18.80;;;9.00;90.70;;;;;;5058676;28;20197;-77
2022/01/01 02:48:09;;;;;;;36.37;18.53;;;9.00;90.70;;;;;;5062039;28;20233;-77
2022/01/01 02:50:38;;;;;;;36.03;19.87;;;9.00;90.80;;;;;;5050688;28;20228;-77
2022/01/01 02:53:14;;;;;;;33.67;17.53;;;9.00;90.80;;;;;;5061450;28;20206;-77
2022/01/01 02:55:44;;;;;;;38.57;18.57;;;9.00;90.80;;;;;;5062483;28;20186;-77
2022/01/01 02:58:13;;;;;;;38.10;18.47;;;9.00;90.80;;;;;;5054327;28;20225;-77
2022/01/01 03:00:42;;;;;;;36.03;17.90;;;8.90;90.80;;;;;;5054746;28;20202;-77
2022/01/01 03:03:10;;;;;;;33.53;17.90;;;8.90;90.80;;;;;;5056874;28;20198;-77
2022/01/01 03:05:39;;;;;;;33.10;18.23;;;8.90;90.90;;;;;;5061594;28;20206;-76
2022/01/01 03:08:07;;;;;;;32.83;18.40;;;8.90;90.90;;;;;;5054565;28;20201;-77
2022/01/01 03:10:37;;;;;;;35.07;17.77;;;8.90;90.90;;;;;;5060174;28;20221;-77
2022/01/01 03:13:05;;;;;;;36.57;17.67;;;8.90;91.00;;;;;;5059349;28;20198;-78
2022/01/01 03:15:34;;;;;;;32.20;17.23;;;8.80;91.00;;;;;;5064023;28;20195;-77
2022/01/01 03:18:02;;;;;;;31.73;17.87;;;8.80;91.00;;;;;;5054541;28;20632;-77
2022/01/01 03:20:30;;;;;;;36.30;18.87;;;8.80;91.00;;;;;;5063558;28;20198;-77
2022/01/01 03:22:59;;;;;;;36.03;18.80;;;8.80;91.10;;;;;;5057049;28;20197;-76
2022/01/01 03:25:27;;;;;;;36.00;17.90;;;8.80;91.10;;;;;;5062868;28;20191;-77
2022/01/01 03:27:57;;;;;;;36.03;18.53;;;8.80;91.10;;;;;;5058851;28;20205;-76
2022/01/01 03:30:25;;;;;;;36.22;20.63;;;8.80;91.10;;;;;;5060669;28;20454;-77
2022/01/01 03:32:54;;;;;;;37.20;19.73;;;8.80;91.20;;;;;;5060418;28;20198;-77
2022/01/01 03:35:22;;;;;;;34.50;19.03;;;8.70;91.10;;;;;;5057407;28;20791;-77
2022/01/01 03:37:51;;;;;;;33.07;18.80;;;8.70;91.10;;;;;;5054035;28;20206;-77
2022/01/01 03:40:19;;;;;;;33.93;18.43;;;8.70;91.10;;;;;;5055850;28;20193;-77
2022/01/01 03:42:47;;;;;;;39.93;18.40;;;8.70;91.10;;;;;;5058093;28;20195;-77
2022/01/01 03:45:17;;;;;;;41.30;18.37;;;8.60;91.10;;;;;;5061675;28;20551;-77
2022/01/01 03:47:45;;;;;;;36.37;18.37;;;8.60;91.10;;;;;;5060899;28;20195;-77
2022/01/01 03:50:14;;;;;;;31.90;18.10;;;8.60;91.10;;;;;;5057588;28;20593;-77
2022/01/01 03:52:43;;;;;;;34.77;18.97;;;8.50;91.10;;;;;;5050000;28;20199;-77
2022/01/01 03:55:12;;;;;;;34.20;18.83;;;8.50;91.10;;;;;;5059941;28;20856;-77
2022/01/01 03:57:40;;;;;;;35.43;17.93;;;8.50;91.10;;;;;;5063401;28;20223;-76
2022/01/01 04:00:12;;;;;;;38.33;19.20;;;8.50;91.10;;;;;;5053234;28;20190;-77
2022/01/01 04:02:41;;;;;;;34.47;19.10;;;8.50;91.10;;;;;;5059243;28;20197;-77
2022/01/01 04:05:10;;;;;;;38.20;20.40;;;8.50;91.20;;;;;;5046326;28;20837;-77
2022/01/01 04:07:39;;;;;;;36.37;19.00;;;8.40;91.10;;;;;;5060136;28;20194;-78
2022/01/01 04:10:08;;;;;;;42.73;20.93;;;8.40;91.10;;;;;;5059599;28;20262;-77
2022/01/01 04:12:37;;;;;;;38.33;19.73;;;8.40;91.20;;;;;;5060561;28;20271;-77
2022/01/01 04:15:06;;;;;;;41.07;20.57;;;8.40;91.20;;;;;;5063102;28;20212;-77
2022/01/01 04:17:37;;;;;;;35.27;18.97;;;8.40;91.20;;;;;;5062685;28;20212;-77
2022/01/01 04:20:08;;;;;;;40.47;19.10;;;8.30;91.20;;;;;;5055986;28;20591;-78
2022/01/01 04:22:37;;;;;;;38.27;19.50;;;8.30;91.30;;;;;;5054664;28;20202;-77
2022/01/01 04:25:06;;;;;;;39.13;20.20;;;8.30;91.30;;;;;;5059069;28;20200;-77
2022/01/01 04:27:34;;;;;;;37.07;19.70;;;8.30;91.30;;;;;;5060339;28;20627;-77
2022/01/01 04:30:03;;;;;;;40.90;20.47;;;8.30;91.30;;;;;;5058384;28;20225;-80
2022/01/01 04:32:32;;;;;;;36.63;19.67;;;8.30;91.40;;;;;;5060687;28;20220;-77
2022/01/01 04:35:00;;;;;;;37.67;19.30;;;8.30;91.40;;;;;;5060794;28;20211;-77
2022/01/01 04:37:30;;;;;;;40.17;19.47;;;8.30;91.40;;;;;;5061399;28;20201;-77
2022/01/01 04:39:59;;;;;;;42.80;20.77;;;8.30;91.40;;;;;;5062524;28;20205;-77
2022/01/01 04:42:27;;;;;;;36.20;19.63;;;8.30;91.40;;;;;;5060672;28;20224;-77
2022/01/01 04:44:56;;;;;;;39.00;19.53;;;8.30;91.50;;;;;;5060141;28;20236;-77
2022/01/01 04:47:24;;;;;;;38.80;18.83;;;8.40;91.50;;;;;;5061282;28;20726;-77
2022/01/01 04:49:53;;;;;;;39.67;19.27;;;8.40;91.50;;;;;;5061497;28;20194;-78
2022/01/01 04:52:21;;;;;;;38.70;19.00;;;8.40;91.50;;;;;;5060003;28;20204;-77
2022/01/01 04:54:51;;;;;;;37.27;19.03;;;8.50;91.60;;;;;;5057483;28;20195;-77
2022/01/01 04:57:19;;;;;;;40.47;18.73;;;8.50;91.60;;;;;;5060843;28;20199;-77
2022/01/01 04:59:48;;;;;;;36.50;19.33;;;8.60;91.60;;;;;;5060805;28;20651;-77
2022/01/01 05:02:16;;;;;;;39.87;18.33;;;8.60;91.50;;;;;;5058871;28;20205;-77
2022/01/01 05:04:44;;;;;;;37.38;20.98;;;8.70;91.50;;;;;;5052084;28;20917;-77
2022/01/01 05:07:13;;;;;;;41.30;18.97;;;8.70;91.50;;;;;;5059583;28;20190;-78
2022/01/01 05:09:41;;;;;;;36.23;19.17;;;8.80;91.50;;;;;;5061862;28;20193;-77
2022/01/01 05:12:11;;;;;;;37.67;19.93;;;8.80;91.40;;;;;;5060128;28;20221;-77
2022/01/01 05:14:40;;;;;;;40.53;20.67;;;8.90;91.40;;;;;;5050081;28;20190;-77
2022/01/01 05:17:08;;;;;;;41.20;19.20;;;8.90;91.20;;;;;;5045930;28;20195;-76
2022/01/01 05:19:36;;;;;;;36.73;18.97;;;8.90;91.20;;;;;;5058955;28;20289;-77
2022/01/01 05:22:05;;;;;;;37.80;19.73;;;8.90;91.20;;;;;;5059073;28;20293;-78
2022/01/01 05:24:33;;;;;;;41.63;19.80;;;9.00;91.10;;;;;;5054162;28;20711;-77
2022/01/01 05:27:03;;;;;;;41.40;20.53;;;9.00;91.10;;;;;;5057838;28;20202;-77
2022/01/01 05:29:32;;;;;;;43.47;20.83;;;9.00;91.00;;;;;;5058450;28;20186;-78
2022/01/01 05:32:01;;;;;;;37.00;20.00;;;9.00;91.00;;;;;;5056979;28;20233;-78
2022/01/01 05:34:29;;;;;;;40.70;20.30;;;9.00;90.90;;;;;;5063328;28;20615;-77
2022/01/01 05:36:58;;;;;;;35.73;19.23;;;9.10;90.90;;;;;;5057644;28;20695;-77
2022/01/01 05:39:26;;;;;;;38.47;19.10;;;9.10;90.90;;;;;;5054031;28;20202;-77
2022/01/01 05:41:55;;;;;;;43.87;21.70;;;9.10;90.90;;;;;;5055209;28;20210;-77
2022/01/01 05:44:23;;;;;;;39.60;19.90;;;9.10;90.90;;;;;;5058419;28;20197;-78
2022/01/01 05:46:54;;;;;;;37.97;21.07;;;9.20;90.90;;;;;;5062261;28;20186;-77
2022/01/01 05:49:22;;;;;;;42.50;21.07;;;9.20;90.80;;;;;;5058156;28;20761;-78
2022/01/01 05:51:51;;;;;;;38.37;20.47;;;9.20;90.80;;;;;;5062003;28;20226;-77
2022/01/01 05:54:20;;;;;;;40.17;21.07;;;9.20;90.80;;;;;;5061011;28;20194;-78
2022/01/01 05:56:49;;;;;;;35.93;19.67;;;9.20;90.80;;;;;;5063420;28;20191;-77
2022/01/01 05:59:17;;;;;;;40.23;20.40;;;9.30;90.70;;;;;;5052262;28;20201;-76
2022/01/01 06:01:45;;;;;;;35.93;20.10;;;9.30;90.70;;;;;;5057616;28;20201;-77
2022/01/01 06:04:15;;;;;;;40.40;20.30;;;9.30;90.70;;;;;;5061111;28;20267;-78
2022/01/01 06:06:46;;;;;;;39.40;20.90;;;9.30;90.70;;;;;;5060239;28;20685;-77
2022/01/01 06:09:15;;;;;;;41.27;20.90;;;9.30;90.60;;;;;;5059001;28;20714;-77
2022/01/01 06:11:43;;;;;;;41.97;20.63;;;9.30;90.60;;;;;;5050387;28;20223;-77
2022/01/01 06:14:12;;;;;;;45.33;24.15;;;9.30;90.60;;;;;;5050621;28;20462;-77
2022/01/01 06:16:40;;;;;;;42.63;21.10;;;9.40;90.70;;;;;;5055479;28;20471;-77
2022/01/01 06:19:08;;;;;;;44.57;21.03;;;9.40;90.70;;;;;;5048710;28;20195;-77
2022/01/01 06:21:38;;;;;;;42.80;22.03;;;9.40;90.70;;;;;;5060136;28;20195;-77
2022/01/01 06:24:07;;;;;;;38.77;21.17;;;9.40;90.70;;;;;;5053290;28;20703;-78
2022/01/01 06:26:39;;;;;;;45.73;23.00;;;9.40;90.70;;;;;;5046924;28;20205;-76
2022/01/01 06:29:07;;;;;;;48.73;24.27;;;9.50;90.60;;;;;;5043235;28;20198;-78
2022/01/01 06:31:36;;;;;;;45.37;23.53;;;9.50;90.60;;;;;;5054245;28;20459;-77
2022/01/01 06:34:04;;;;;;;40.53;21.17;;;9.50;90.60;;;;;;5049896;28;20232;-78
2022/01/01 06:36:34;;;;;;;41.70;21.73;;;9.50;90.60;;;;;;5063189;28;20201;-77
2022/01/01 06:39:04;;;;;;;49.43;22.33;;;9.60;90.60;;;;;;5064432;28;20924;-76
2022/01/01 06:41:32;;;;;;;42.30;21.43;;;9.50;90.60;;;;;;5059411;28;20194;-77
2022/01/01 06:44:06;;;;;;;43.37;21.53;;;9.60;90.70;;;;;;5067724;28;20194;-77
2022/01/01 06:46:34;;;;;;;40.87;22.10;;;9.60;90.70;;;;;;5060977;28;20202;-79
2022/01/01 06:49:03;;;;;;;38.90;22.00;;;9.60;90.80;;;;;;5063087;28;20198;-80
2022/01/01 06:51:32;;;;;;;39.23;21.20;;;9.60;90.80;;;;;;5062579;28;20225;-78
2022/01/01 06:54:00;;;;;;;39.57;21.00;;;9.60;90.60;;;;;;5064650;28;20670;-77
2022/01/01 06:56:30;;;;;;;36.73;19.67;;;9.60;90.50;;;;;;5059258;28;20195;-77
2022/01/01 06:58:58;;;;;;;39.87;20.43;;;9.50;90.40;;;;;;5062986;28;20198;-77
2022/01/01 07:01:27;;;;;;;38.37;21.70;;;9.50;90.30;;;;;;5062794;28;20202;-77
2022/01/01 07:03:56;;;;;;;43.97;21.13;;;9.40;90.30;;;;;;5063934;28;20194;-77
2022/01/01 07:06:24;;;;;;;38.67;21.67;;;9.40;90.30;;;;;;5062110;28;20195;-77
2022/01/01 07:08:52;;;;;;;39.53;20.57;;;9.30;90.30;;;;;;5062038;28;20206;-77
2022/01/01 07:11:21;;;;;;;40.37;21.13;;;9.30;90.40;;;;;;5068869;28;20213;-77
2022/01/01 07:13:50;;;;;;;42.13;21.20;;;9.30;90.40;;;;;;5057325;28;20254;-77
2022/01/01 07:16:20;;;;;;;39.90;21.13;;;9.30;90.50;;;;;;5046817;28;20208;-77
2022/01/01 07:18:48;;;;;;;38.80;20.53;;;9.30;90.60;;;;;;5055579;28;20202;-77
2022/01/01 07:21:17;;;;;;;47.50;23.87;;;9.30;90.60;;;;;;5062970;28;20203;-77
2022/01/01 07:23:45;;;;;;;45.00;24.07;;;9.20;90.70;;;;;;5063712;28;20277;-77
2022/01/01 07:26:13;;;;;;;42.03;23.30;;;9.30;90.70;;;;;;5054802;28;20201;-76
2022/01/01 07:28:42;;;;;;;44.23;21.50;;;9.30;90.70;;;;;;5043307;28;20202;-76
2022/01/01 07:31:12;;;;;;;49.30;23.47;;;9.30;90.80;;;;;;5061209;28;20204;-78
2022/01/01 07:33:40;;;;;;;47.57;24.17;;;9.30;90.90;;;;;;5054922;28;20218;-77
2022/01/01 07:36:09;;;;;;;50.07;24.50;;;9.30;90.90;;;;;;5064016;28;20199;-78
2022/01/01 07:38:39;;;;;;;44.53;23.63;;;9.40;91.00;;;;;;5047457;28;20195;-78
2022/01/01 07:41:07;;;;;;;51.50;23.83;;;9.40;91.00;;;;;;5045136;28;20195;-77
2022/01/01 07:43:36;;;;;;;48.10;23.73;;;9.50;91.00;;;;;;5055385;28;20194;-77
2022/01/01 07:46:07;;;;;;;46.17;22.00;;;9.50;91.00;;;;;;5054672;28;20201;-78
2022/01/01 07:48:37;;;;;;;41.70;23.43;;;9.60;91.00;;;;;;5065246;28;20222;-78
2022/01/01 07:51:05;;;;;;;43.27;22.47;;;9.60;90.90;;;;;;5059142;28;20195;-78
2022/01/01 07:53:34;;;;;;;42.47;22.47;;;9.60;90.90;;;;;;5063319;28;20211;-77
2022/01/01 07:56:02;;;;;;;54.30;23.43;;;9.70;91.00;;;;;;5057686;28;20197;-77
2022/01/01 07:58:31;;;;;;;40.93;21.33;;;9.80;91.00;;;;;;5063975;28;20186;-77
2022/01/01 08:00:59;;;;;;;44.83;22.97;;;9.80;90.90;;;;;;5064931;28;20190;-78
2022/01/01 08:03:28;;;;;;;40.00;21.33;;;9.90;90.90;;;;;;5064192;28;20206;-79
2022/01/01 08:05:57;;;;;;;47.37;22.70;;;10.00;91.00;;;;;;5063164;28;20198;-77
2022/01/01 08:08:26;;;;;;;44.10;22.17;;;10.10;91.40;;;;;;5059394;28;20198;-77
2022/01/01 08:10:54;;;;;;;40.17;21.23;;;10.20;91.00;;;;;;5056317;28;20558;-78
2022/01/01 08:13:24;;;;;;;39.80;21.13;;;10.30;91.00;;;;;;5049189;28;20230;-77
2022/01/01 08:15:54;;;;;;;44.03;23.27;;;10.40;91.00;;;;;;5049417;28;20195;-77
2022/01/01 08:18:23;;;;;;;39.23;20.67;;;10.40;90.80;;;;;;5045881;28;20641;-78
2022/01/01 08:20:51;;;;;;;42.33;21.33;;;10.50;90.80;;;;;;5059240;28;20197;-77
2022/01/01 08:23:21;;;;;;;36.20;21.57;;;10.50;90.80;;;;;;5054583;28;20711;-77
2022/01/01 08:25:49;;;;;;;40.00;20.70;;;10.60;90.60;;;;;;5060520;28;20200;-76
2022/01/01 08:28:17;;;;;;;43.20;20.67;;;10.60;90.50;;;;;;5056118;28;20203;-77
2022/01/01 08:30:46;;;;;;;41.73;21.87;;;10.70;90.50;;;;;;5056517;28;20633;-77
2022/01/01 08:33:15;;;;;;;35.67;20.10;;;10.70;90.60;;;;;;5065031;28;20214;-77
2022/01/01 08:35:43;;;;;;;37.37;21.27;;;10.70;90.60;;;;;;5060571;28;20716;-77
2022/01/01 08:38:13;;;;;;;38.93;21.53;;;10.80;90.60;;;;;;5056883;28;20190;-78
2022/01/01 08:40:44;;;;;;;35.27;20.37;;;10.80;90.70;;;;;;5064216;28;20216;-77
2022/01/01 08:43:12;;;;;;;42.10;20.97;;;10.80;90.50;;;;;;5065622;28;20191;-77
2022/01/01 08:45:40;;;;;;;37.47;20.27;;;10.80;90.40;;;;;;5063051;28;20182;-77
2022/01/01 08:48:09;;;;;;;36.33;19.90;;;10.90;90.50;;;;;;5063451;28;20191;-77
2022/01/01 08:50:37;;;;;;;40.33;20.73;;;10.90;90.50;;;;;;5064857;28;20805;-77
2022/01/01 08:53:06;;;;;;;38.57;21.07;;;11.00;90.60;;;;;;5072257;28;20234;-77
2022/01/01 08:55:34;;;;;;;39.60;21.50;;;11.00;90.90;;;;;;5064468;28;20201;-77
2022/01/01 08:58:04;;;;;;;38.47;20.63;;;11.20;90.60;;;;;;5064210;28;20205;-77
2022/01/01 09:00:52;;;;;;;40.93;20.13;;;11.30;90.60;;;;;;5064751;28;20925;-77
2022/01/01 09:03:21;;;;;;;35.00;19.27;;;11.40;90.60;;;;;;5068196;28;20199;-78
2022/01/01 09:05:51;;;;;;;35.70;19.83;;;11.60;90.80;;;;;;5066000;28;20942;-77
2022/01/01 09:08:37;;;;;;;40.17;20.53;;;11.60;90.40;;;;;;5072501;28;20221;-77
2022/01/01 09:11:05;;;;;;;37.17;19.37;;;11.80;90.50;;;;;;5065162;28;20707;-77
2022/01/01 09:13:35;;;;;;;37.87;20.43;;;11.80;90.50;;;;;;5064750;28;20210;-77
2022/01/01 09:16:04;;;;;;;36.23;19.83;;;11.90;90.60;;;;;;5065338;28;20183;-77
2022/01/01 09:18:32;;;;;;;39.90;21.47;;;12.00;90.40;;;;;;5072416;28;20193;-78
2022/01/01 09:21:01;;;;;;;41.23;20.90;;;12.10;90.30;;;;;;5077165;28;20186;-78
2022/01/01 09:23:29;;;;;;;39.70;20.90;;;12.10;90.00;;;;;;5064662;28;20194;-77
2022/01/01 09:26:00;;;;;;;40.50;21.33;;;12.20;90.00;;;;;;5064940;28;20194;-78
2022/01/01 09:28:29;;;;;;;35.17;20.23;;;12.30;90.00;;;;;;5067599;28;20189;-77
2022/01/01 09:31:00;;;;;;;38.80;21.07;;;12.30;89.70;;;;;;5065127;28;20187;-77
2022/01/01 09:33:31;;;;;;;34.27;19.50;;;12.40;89.80;;;;;;5064478;28;20226;-79
2022/01/01 09:35:59;;;;;;;37.57;19.73;;;12.30;89.40;;;;;;5046167;28;20207;-78
2022/01/01 09:38:28;;;;;;;36.13;19.63;;;12.40;89.50;;;;;;5063213;28;20786;-79
2022/01/01 09:40:57;;;;;;;31.63;18.70;;;12.50;89.70;;;;;;5064994;28;20620;-78
2022/01/01 09:43:27;;;;;;;36.07;18.60;;;12.50;89.70;;;;;;5062676;28;20183;-78
2022/01/01 09:46:00;;;;;;;35.67;18.53;;;12.60;89.60;;;;;;5067064;28;20191;-78
2022/01/01 09:48:30;;;;;;;35.57;18.70;;;12.70;89.70;;;;;;5066112;28;20195;-78
2022/01/01 09:51:04;;;;;;;34.43;18.27;;;12.80;89.70;;;;;;5047323;28;20294;-77
2022/01/01 09:53:33;;;;;;;36.17;18.00;;;12.90;89.90;;;;;;5063738;28;20198;-78
2022/01/01 09:56:03;;;;;;;33.53;18.63;;;13.00;89.80;;;;;;5071197;28;20202;-78
2022/01/01 09:58:33;;;;;;;35.13;18.67;;;13.10;89.70;;;;;;5067616;28;20231;-77
2022/01/01 10:01:06;;;;;;;35.80;18.90;;;13.10;89.60;;;;;;5069424;28;20205;-77
2022/01/01 10:03:36;;;;;;;33.40;17.80;;;13.20;89.30;;;;;;5068674;28;20269;-76
2022/01/01 10:06:06;;;;;;;36.17;18.20;;;13.30;89.30;;;;;;5071528;28;20530;-77
2022/01/01 10:08:37;;;;;;;31.07;17.20;;;13.40;89.40;;;;;;5076063;28;20182;-76
2022/01/01 10:11:06;;;;;;;34.43;18.03;;;13.50;89.20;;;;;;5069821;28;20186;-77
2022/01/01 10:13:37;;;;;;;34.77;18.43;;;13.60;89.10;;;;;;5071150;28;20222;-77
2022/01/01 10:16:08;;;;;;;35.87;18.67;;;13.60;88.90;;;;;;5072462;28;20183;-77
2022/01/01 10:18:38;;;;;;;32.20;18.27;;;13.70;88.20;;;;;;5070835;28;20392;-78
2022/01/01 10:21:09;;;;;;;36.03;18.67;;;13.80;87.80;;;;;;5084209;28;20615;-77
2022/01/01 10:23:39;;;;;;;43.30;19.13;;;13.80;87.50;;;;;;5075911;28;20844;-77
2022/01/01 10:29:14;;;;;;;34.33;17.50;;;13.90;87.20;;;;;;5075800;28;20187;-78
2022/01/01 10:31:58;;;;;;;30.40;17.53;;;13.90;87.10;;;;;;5083601;28;20713;-77
2022/01/01 10:34:28;;;;;;;34.57;17.57;;;14.00;87.20;;;;;;5082497;28;20225;-77
2022/01/01 10:36:57;;;;;;;33.90;18.40;;;14.00;86.60;;;;;;5084211;28;20187;-78
2022/01/01 10:39:26;;;;;;;29.33;17.60;;;14.00;86.90;;;;;;5073631;28;20198;-78
2022/01/01 10:41:58;;;;;;;36.58;19.20;;;14.10;87.20;;;;;;5064976;28;20431;-77
2022/01/01 10:44:30;;;;;;;36.93;18.73;;;14.10;87.20;;;;;;5066337;28;20642;-77
2022/01/01 10:47:00;;;;;;;34.17;19.00;;;14.10;87.00;;;;;;5076941;28;20186;-77
2022/01/01 10:49:35;;;;;;;39.07;18.97;;;14.20;87.00;;;;;;5068624;28;20874;-77
2022/01/01 10:52:28;;;;;;;31.27;19.03;;;14.20;87.10;;;;;;5066012;28;20190;-79
2022/01/01 10:54:57;;;;;;;37.00;18.13;;;14.30;87.20;;;;;;5063609;28;20210;-78
2022/01/01 10:57:29;;;;;;;35.07;19.87;;;14.30;87.20;;;;;;5050387;28;20841;-76
2022/01/01 11:00:13;;;;;;;35.67;19.70;;;14.40;86.80;;;;;;5058421;28;20416;-76
2022/01/01 11:02:45;;;;;;;33.50;18.20;;;14.40;86.50;;;;;;5048363;28;20907;-77
2022/01/01 11:05:13;;;;;;;32.37;19.37;;;14.40;86.10;;;;;;5044652;28;20249;-76
2022/01/01 11:07:51;;;;;;;38.20;19.13;;;14.40;85.90;;;;;;5048652;28;20198;-77
2022/01/01 11:10:21;;;;;;;35.57;19.43;;;14.30;85.70;;;;;;5060460;28;20197;-76
2022/01/01 11:12:51;;;;;;;33.43;18.43;;;14.30;85.70;;;;;;5063320;28;20195;-75
2022/01/01 11:15:21;;;;;;;35.23;18.27;;;14.20;85.40;;;;;;5064257;28;20222;-76
2022/01/01 11:17:51;;;;;;;32.97;16.27;;;14.10;85.20;;;;;;5062554;28;20201;-77
2022/01/01 11:20:21;;;;;;;31.80;18.33;;;14.10;85.40;;;;;;5074660;28;20194;-77
2022/01/01 11:22:49;;;;;;;31.10;18.77;;;14.10;85.70;;;;;;5061069;28;20245;-77
2022/01/01 11:25:18;;;;;;;33.80;17.43;;;14.10;86.00;;;;;;5063630;28;20598;-77
2022/01/01 11:27:47;;;;;;;32.50;19.07;;;14.00;86.10;;;;;;5060181;28;20670;-77
2022/01/01 11:30:17;;;;;;;33.37;19.73;;;14.00;86.30;;;;;;5059756;28;20187;-78
2022/01/01 11:32:51;;;;;;;35.37;19.30;;;14.00;86.50;;;;;;5045850;28;20199;-78
2022/01/01 11:35:22;;;;;;;31.90;19.30;;;14.00;86.70;;;;;;5055519;28;20206;-79
2022/01/01 11:37:59;;;;;;;36.30;20.63;;;14.00;86.90;;;;;;5056848;28;20195;-78
2022/01/01 11:40:33;;;;;;;35.77;19.03;;;14.00;87.30;;;;;;5061925;28;20191;-78
2022/01/01 11:43:01;;;;;;;34.80;18.80;;;14.00;87.50;;;;;;5063727;28;20186;-77
2022/01/01 11:45:48;;;;;;;35.20;19.37;;;14.00;87.60;;;;;;5064625;28;20186;-77
2022/01/01 11:48:32;;;;;;;32.97;18.40;;;14.00;87.70;;;;;;5065084;28;20217;-78
2022/01/01 11:51:23;;;;;;;38.13;19.53;;;14.10;87.90;;;;;;5047605;28;20691;-77
2022/01/01 11:54:24;;;;;;;36.77;19.63;;;14.10;88.00;;;;;;5059096;28;20210;-77
2022/01/01 11:57:11;;;;;;;35.80;18.03;;;14.20;88.10;;;;;;5026716;28;20293;-78
2022/01/01 11:59:47;;;;;;;31.90;17.83;;;14.20;88.20;;;;;;5061024;28;20187;-77
2022/01/01 12:02:36;;;;;;;36.23;19.53;;;14.30;88.20;;;;;;5062650;28;20186;-77
2022/01/01 12:05:22;;;;;;;34.37;19.37;;;14.30;88.30;;;;;;5063409;28;20691;-77
2022/01/01 12:07:54;;;;;;;35.57;19.77;;;14.40;88.40;;;;;;5050493;28;20189;-77
2022/01/01 12:10:30;;;;;;;31.73;18.60;;;14.40;88.40;;;;;;5047232;28;20206;-77
2022/01/01 12:13:00;;;;;;;34.93;20.20;;;14.50;88.40;;;;;;5058242;28;20695;-77
2022/01/01 12:15:37;;;;;;;32.20;18.07;;;14.50;88.50;;;;;;5045054;28;20237;-77
2022/01/01 12:18:08;;;;;;;36.10;19.00;;;14.50;88.60;;;;;;5055392;28;20194;-77
2022/01/01 12:20:40;;;;;;;34.10;19.43;;;14.50;88.60;;;;;;5062306;28;20179;-77
2022/01/01 12:23:10;;;;;;;32.27;18.03;;;14.60;88.70;;;;;;5050021;28;20206;-77
2022/01/01 12:25:41;;;;;;;35.67;19.40;;;14.70;88.80;;;;;;5056839;28;20894;-78
2022/01/01 12:28:13;;;;;;;31.70;18.07;;;14.70;88.80;;;;;;5058256;28;20202;-78
2022/01/01 12:30:45;;;;;;;34.83;18.83;;;14.80;88.80;;;;;;5065797;28;20194;-77
2022/01/01 12:33:25;;;;;;;30.70;18.83;;;14.90;89.00;;;;;;5051861;28;20219;-78
2022/01/01 12:35:56;;;;;;;30.40;17.93;;;15.00;89.10;;;;;;5052304;28;20253;-78
2022/01/01 12:38:26;;;;;;;30.93;17.40;;;15.10;89.00;;;;;;5068363;28;20186;-77
2022/01/01 12:41:03;;;;;;;30.10;17.03;;;15.10;89.00;;;;;;5071345;28;20524;-78
2022/01/01 12:43:35;;;;;;;32.07;16.83;;;15.10;89.00;;;;;;5058941;28;20183;-78
2022/01/01 12:46:04;;;;;;;31.23;16.77;;;15.10;89.00;;;;;;5050240;28;20187;-77
2022/01/01 12:48:34;;;;;;;31.43;17.27;;;15.10;89.00;;;;;;5051088;28;20195;-78
2022/01/01 12:51:06;;;;;;;33.13;16.50;;;15.20;89.00;;;;;;5063521;28;20190;-77